Quick Links (Output Below):   Max & Min Temps   /   Climate Reports   /   Zone Forecasts
River Forecasts   /   Forestry Forecasts   /   Aviation Forecasts   /   Radars   /   Features

Terminal Aerodrome Forecast (Texarkana)

Pick a Site:
Arkadelphia | El Dorado | Fayetteville | Fort Smith | Harrison | Highfill | Hot Springs | Jonesboro
Little Rock | Monticello | Mountain Home | Pine Bluff | Texarkana
 Forecast 

KTXK 301133Z 3012/3112 16005KT P6SM OVC150
     FM301500 15006KT P6SM OVC100
     FM301700 11005KT P6SM -RA SCT040 OVC100
     FM310100 09005KT P6SM OVC080
      TEMPO 3109/3112 5SM -TSRA BR OVC050CB=


 Latest METARs (Observations) 
How to Decode METARs
13Z KTXK 301253Z 15005KT 10SM CLR 22/17 A3011 RMK AO2 SLP192
         T02220167
         
12Z KTXK 301153Z 16006KT 10SM CLR 22/17 A3010 RMK AO2 SLP187 T02170167
         10228 20211 51008
         
11Z KTXK 301053Z 17006KT 10SM CLR 22/17 A3009 RMK AO2 SLP183
         T02170167
         
10Z KTXK 300953Z AUTO 14005KT 10SM CLR 22/17 A3008 RMK AO2 SLP181
         T02170172
         
09Z KTXK 300853Z AUTO 14007KT 10SM CLR 22/17 A3007 RMK AO2 SLP177
         T02170172 55001
         
08Z KTXK 300753Z AUTO 13005KT 10SM CLR 22/17 A3007 RMK AO2 SLP177
         T02220172
         
07Z KTXK 300653Z AUTO 13004KT 10SM CLR 22/18 A3007 RMK AO2 SLP177
         T02220178
         
06Z KTXK 300553Z AUTO 12004KT 10SM CLR 23/19 A3007 RMK AO2 SLP178
         T02280189 10294 20228 403170189 58000
         
05Z KTXK 300453Z AUTO 12003KT 10SM CLR 23/19 A3008 RMK AO2 SLP181
         T02330189
         
04Z KTXK 300353Z AUTO 11003KT 10SM CLR 24/19 A3007 RMK AO2 SLP179
         T02390189
         
***** Today's Observations (Above) *****


Back to Main Page
http://www.srh.noaa.gov/lzk/qfcst.php

USA.gov is the U.S. government's official web portal to all federal, state and local government web resources and services.